createdAt,value
2022-08-24T00:01:58.078Z,4.70
2022-08-24T00:04:26.144Z,3.15
2022-08-24T00:06:53.680Z,3.25
2022-08-24T00:09:21.359Z,4.20
2022-08-24T00:11:48.930Z,4.03
2022-08-24T00:14:16.466Z,5.10
2022-08-24T00:16:44.059Z,4.30
2022-08-24T00:19:12.204Z,3.17
2022-08-24T00:21:39.729Z,2.90
2022-08-24T00:24:07.361Z,3.90
2022-08-24T00:26:35.492Z,2.63
2022-08-24T00:29:07.431Z,3.45
2022-08-24T00:31:35.880Z,2.70
2022-08-24T00:34:03.705Z,3.38
2022-08-24T00:36:31.572Z,2.25
2022-08-24T00:38:59.474Z,2.58
2022-08-24T00:41:28.272Z,2.65
2022-08-24T00:43:59.457Z,2.67
2022-08-24T00:46:51.592Z,2.47
2022-08-24T00:49:45.519Z,4.55
2022-08-24T00:52:21.289Z,2.38
2022-08-24T00:54:55.310Z,4.20
2022-08-24T00:57:27.683Z,3.08
2022-08-24T01:00:02.269Z,2.50
2022-08-24T01:02:33.930Z,2.83
2022-08-24T01:05:06.970Z,2.50
2022-08-24T01:07:36.877Z,2.60
2022-08-24T01:10:11.812Z,1.77
2022-08-24T01:13:00.493Z,3.05
2022-08-24T01:15:31.295Z,3.08
2022-08-24T01:18:19.157Z,1.73
2022-08-24T01:20:53.014Z,1.98
2022-08-24T01:23:44.494Z,2.25
2022-08-24T01:26:18.345Z,3.10
2022-08-24T01:28:49.472Z,4.03
2022-08-24T01:31:22.328Z,2.28
2022-08-24T01:33:55.341Z,2.03
2022-08-24T01:36:32.014Z,2.40
2022-08-24T01:39:06.341Z,3.40
2022-08-24T01:41:34.101Z,2.33
2022-08-24T01:44:02.684Z,2.53
2022-08-24T01:46:30.553Z,1.95
2022-08-24T01:48:58.526Z,1.90
2022-08-24T01:51:31.302Z,1.90
2022-08-24T01:54:03.002Z,2.03
2022-08-24T01:56:31.454Z,2.30
2022-08-24T01:59:01.494Z,1.70
2022-08-24T02:01:32.102Z,2.03
2022-08-24T02:04:02.582Z,2.00
2022-08-24T02:06:30.654Z,3.97
2022-08-24T02:08:58.209Z,3.20
2022-08-24T02:11:25.951Z,3.97
2022-08-24T02:13:53.509Z,2.92
2022-08-24T02:16:21.397Z,2.13
2022-08-24T02:18:49.027Z,2.95
2022-08-24T02:21:17.709Z,2.83
2022-08-24T02:23:47.831Z,1.83
2022-08-24T02:26:15.400Z,2.88
2022-08-24T02:28:42.903Z,2.78
2022-08-24T02:31:12.457Z,2.65
2022-08-24T02:33:40.973Z,2.08
2022-08-24T02:36:25.125Z,2.22
2022-08-24T02:38:56.300Z,2.47
2022-08-24T02:41:25.720Z,2.97
2022-08-24T02:43:55.810Z,2.40
2022-08-24T02:46:28.798Z,2.55
2022-08-24T02:49:11.374Z,1.70
2022-08-24T02:51:45.736Z,2.15
2022-08-24T02:54:22.208Z,1.90
2022-08-24T02:56:52.478Z,2.70
2022-08-24T02:59:21.389Z,1.80
2022-08-24T03:01:50.476Z,1.80
2022-08-24T03:04:19.755Z,2.20
2022-08-24T03:06:47.622Z,2.78
2022-08-24T03:09:15.501Z,1.67
2022-08-24T03:11:45.573Z,2.20
2022-08-24T03:14:14.475Z,2.35
2022-08-24T03:16:42.376Z,3.17
2022-08-24T03:19:10.030Z,2.10
2022-08-24T03:21:38.786Z,1.80
2022-08-24T03:24:06.478Z,3.25
2022-08-24T03:26:34.728Z,2.40
2022-08-24T03:29:02.276Z,3.85
2022-08-24T03:31:32.428Z,2.40
2022-08-24T03:34:00.591Z,2.10
2022-08-24T03:36:28.241Z,2.15
2022-08-24T03:38:55.816Z,1.92
2022-08-24T03:41:23.858Z,2.28
2022-08-24T03:43:51.604Z,3.35
2022-08-24T03:46:25.464Z,2.58
2022-08-24T03:48:58.158Z,3.03
2022-08-24T03:51:28.503Z,1.77
2022-08-24T03:53:59.081Z,3.08
2022-08-24T03:56:29.273Z,2.20
2022-08-24T03:58:57.543Z,2.30
2022-08-24T04:01:28.751Z,1.88
2022-08-24T04:03:56.952Z,2.25
2022-08-24T04:06:29.915Z,3.85
2022-08-24T04:08:57.896Z,1.80
2022-08-24T04:11:27.714Z,1.88
2022-08-24T04:13:58.079Z,2.00
2022-08-24T04:16:27.703Z,2.10
2022-08-24T04:19:05.443Z,2.22
2022-08-24T04:21:36.591Z,5.70
2022-08-24T04:24:08.872Z,2.40
2022-08-24T04:26:44.928Z,2.20
2022-08-24T04:29:17.393Z,2.33
2022-08-24T04:31:54.217Z,2.03
2022-08-24T04:34:23.218Z,2.03
2022-08-24T04:36:54.144Z,2.00
2022-08-24T04:39:21.721Z,2.33
2022-08-24T04:42:26.456Z,1.70
2022-08-24T04:44:55.410Z,1.90
2022-08-24T04:47:24.647Z,2.22
2022-08-24T04:49:52.331Z,1.92
2022-08-24T04:52:19.939Z,1.90
2022-08-24T04:54:47.814Z,2.22
2022-08-24T04:57:21.959Z,1.95
2022-08-24T04:59:49.865Z,1.88
2022-08-24T05:02:18.257Z,1.75
2022-08-24T05:04:49.075Z,2.28
2022-08-24T05:07:18.436Z,2.30
2022-08-24T05:09:46.060Z,3.40
2022-08-24T05:12:13.722Z,2.72
2022-08-24T05:14:50.344Z,2.50
2022-08-24T05:17:18.069Z,2.30
2022-08-24T05:19:45.668Z,1.95
2022-08-24T05:22:13.328Z,2.70
2022-08-24T05:24:46.639Z,2.05
2022-08-24T05:27:14.430Z,3.92
2022-08-24T05:29:43.331Z,2.17
2022-08-24T05:32:11.504Z,2.55
2022-08-24T05:34:39.375Z,3.15
2022-08-24T05:37:07.160Z,8.45
2022-08-24T05:39:48.990Z,5.90
2022-08-24T05:42:16.602Z,3.60
2022-08-24T05:44:48.769Z,5.93
2022-08-24T05:47:20.391Z,5.55
2022-08-24T05:49:52.957Z,4.78
2022-08-24T05:52:22.741Z,6.22
2022-08-24T05:54:56.509Z,5.45
2022-08-24T05:57:27.240Z,6.53
2022-08-24T06:00:12.291Z,8.57
2022-08-24T06:02:45.893Z,9.75
2022-08-24T06:05:14.590Z,9.70
2022-08-24T06:07:42.597Z,7.95
2022-08-24T06:10:35.329Z,6.55
2022-08-24T06:12:59.495Z,5.75
2022-08-24T06:15:27.735Z,8.98
2022-08-24T06:17:55.372Z,11.02
2022-08-24T06:20:23.010Z,6.30
2022-08-24T06:22:51.236Z,7.13
2022-08-24T06:25:37.993Z,5.88
2022-08-24T06:28:05.574Z,6.15
2022-08-24T06:30:34.949Z,5.65
2022-08-24T06:33:12.400Z,8.48
2022-08-24T06:35:47.159Z,6.32
2022-08-24T06:38:15.532Z,5.35
2022-08-24T06:40:45.964Z,5.13
2022-08-24T06:43:14.201Z,7.70
2022-08-24T06:45:48.975Z,5.00
2022-08-24T06:48:19.417Z,7.18
2022-08-24T06:50:47.922Z,6.97
2022-08-24T06:53:16.517Z,6.03
2022-08-24T06:56:05.464Z,10.82
2022-08-24T06:58:35.864Z,6.40
2022-08-24T07:01:12.910Z,6.88
2022-08-24T07:03:41.187Z,7.13
2022-08-24T07:06:40.703Z,4.53
2022-08-24T07:09:09.665Z,6.07
2022-08-24T07:11:37.257Z,5.28
2022-08-24T07:14:05.766Z,4.95
2022-08-24T07:16:34.298Z,6.40
2022-08-24T07:19:05.571Z,7.65
2022-08-24T07:21:33.365Z,4.53
2022-08-24T07:24:03.439Z,4.35
2022-08-24T07:26:35.263Z,6.18
2022-08-24T07:29:06.724Z,6.30
2022-08-24T07:31:48.981Z,6.03
2022-08-24T07:34:31.230Z,4.50
2022-08-24T07:37:00.576Z,4.03
2022-08-24T07:39:30.390Z,3.63
2022-08-24T07:42:17.423Z,4.53
2022-08-24T07:44:46.573Z,3.67
2022-08-24T07:47:37.135Z,4.55
2022-08-24T07:50:04.610Z,4.20
2022-08-24T07:52:32.387Z,3.50
2022-08-24T07:55:00.300Z,4.82
2022-08-24T07:57:28.329Z,5.75
2022-08-24T07:59:55.877Z,3.53
2022-08-24T08:02:23.526Z,3.85
2022-08-24T08:04:57.687Z,4.95
2022-08-24T08:07:26.856Z,5.47
2022-08-24T08:09:54.415Z,5.68
2022-08-24T08:12:22.117Z,4.50
2022-08-24T08:14:57.814Z,5.65
2022-08-24T08:17:25.883Z,6.18
2022-08-24T08:19:53.662Z,3.78
2022-08-24T08:22:40.288Z,4.68
2022-08-24T08:25:39.144Z,5.80
2022-08-24T08:28:25.260Z,6.28
2022-08-24T08:30:54.355Z,4.43
2022-08-24T08:33:21.991Z,4.45
2022-08-24T08:35:50.401Z,3.60
2022-08-24T08:38:18.116Z,4.00
2022-08-24T08:40:45.606Z,4.38
2022-08-24T08:43:28.496Z,3.10
2022-08-24T08:45:56.342Z,3.38
2022-08-24T08:48:56.033Z,3.22
2022-08-24T08:51:51.908Z,4.07
2022-08-24T08:54:44.954Z,4.80
2022-08-24T08:57:32.873Z,2.83
2022-08-24T09:00:15.820Z,2.90
2022-08-24T09:03:23.664Z,3.05
2022-08-24T09:06:14.148Z,1.92
2022-08-24T09:09:09.369Z,2.33
2022-08-24T09:12:00.636Z,2.45
2022-08-24T09:14:52.525Z,2.20
2022-08-24T09:17:38.741Z,3.22
2022-08-24T09:20:29.091Z,2.08
2022-08-24T09:23:19.560Z,2.25
2022-08-24T09:25:56.514Z,1.85
2022-08-24T09:28:44.700Z,2.60
2022-08-24T09:31:39.195Z,2.72
2022-08-24T09:34:07.766Z,2.20
2022-08-24T09:36:52.105Z,2.60
2022-08-24T09:39:37.849Z,3.70
2022-08-24T09:42:25.764Z,2.55
2022-08-24T09:45:27.464Z,2.63
2022-08-24T09:48:15.657Z,3.75
2022-08-24T09:51:08.423Z,2.55
2022-08-24T09:53:56.803Z,3.03
2022-08-24T09:57:09.346Z,2.70
2022-08-24T09:59:58.214Z,4.85
2022-08-24T10:02:49.081Z,27.77
2022-08-24T10:05:40.331Z,5.20
2022-08-24T10:08:20.067Z,5.18
2022-08-24T10:10:53.628Z,4.10
2022-08-24T10:13:45.783Z,3.60
2022-08-24T10:16:20.757Z,6.55
2022-08-24T10:19:06.602Z,4.05
2022-08-24T10:21:46.797Z,3.50
2022-08-24T10:24:40.602Z,3.13
2022-08-24T10:27:38.713Z,2.88
2022-08-24T10:30:44.007Z,2.92
2022-08-24T10:33:22.276Z,2.20
2022-08-24T10:36:10.949Z,2.95
2022-08-24T10:39:22.197Z,2.28
2022-08-24T10:42:34.317Z,2.25
2022-08-24T10:45:20.549Z,2.55
2022-08-24T10:48:29.828Z,2.28
2022-08-24T10:51:22.692Z,3.38
2022-08-24T10:53:53.208Z,1.95
2022-08-24T10:56:46.618Z,2.78
2022-08-24T10:59:43.329Z,3.70
2022-08-24T11:02:31.086Z,4.22
2022-08-24T11:05:01.591Z,3.25
2022-08-24T11:07:29.630Z,3.28
2022-08-24T11:10:02.916Z,2.58
2022-08-24T11:12:38.289Z,2.45
2022-08-24T11:15:17.212Z,2.80
2022-08-24T11:17:56.732Z,4.85
2022-08-24T11:20:41.790Z,3.50
2022-08-24T11:23:21.808Z,2.95
2022-08-24T11:26:02.400Z,3.88
2022-08-24T11:28:39.342Z,5.47
2022-08-24T11:31:21.670Z,3.90
2022-08-24T11:33:58.488Z,4.18
2022-08-24T11:36:28.707Z,3.65
2022-08-24T11:39:23.670Z,3.63
2022-08-24T11:42:10.165Z,3.60
2022-08-24T11:47:30.459Z,5.03
2022-08-24T11:50:06.502Z,3.72
2022-08-24T11:52:58.498Z,6.15
2022-08-24T11:56:00.229Z,4.75
2022-08-24T11:58:52.570Z,5.05
2022-08-24T12:01:20.299Z,5.82
2022-08-24T12:04:20.097Z,7.00
2022-08-24T12:07:28.914Z,6.70
2022-08-24T12:10:08.793Z,5.03
2022-08-24T12:12:54.902Z,6.03
2022-08-24T12:15:42.775Z,5.57
2022-08-24T12:18:41.780Z,6.57
2022-08-24T12:21:12.876Z,6.40
2022-08-24T12:23:44.675Z,5.30
2022-08-24T12:26:50.392Z,6.18
2022-08-24T12:29:34.971Z,4.65
2022-08-24T12:32:16.381Z,5.85
2022-08-24T12:35:01.840Z,4.70
2022-08-24T12:37:59.285Z,5.47
2022-08-24T12:40:53.418Z,4.43
2022-08-24T12:43:31.987Z,3.50
2022-08-24T12:46:01.537Z,5.28
2022-08-24T12:48:42.739Z,4.13
2022-08-24T12:51:30.571Z,4.65
2022-08-24T12:54:16.822Z,3.72
2022-08-24T12:56:56.797Z,2.92
2022-08-24T12:59:32.350Z,3.50
2022-08-24T13:02:04.918Z,3.35
2022-08-24T13:04:33.011Z,2.95
2022-08-24T13:07:20.096Z,1.60
2022-08-24T13:10:02.788Z,2.28
2022-08-24T13:12:42.008Z,1.60
2022-08-24T13:15:28.112Z,1.40
2022-08-24T13:18:09.555Z,1.25
2022-08-24T13:20:43.763Z,1.08
2022-08-24T13:23:12.037Z,1.15
2022-08-24T13:25:51.418Z,0.90
2022-08-24T13:28:22.223Z,0.85
2022-08-24T13:31:19.912Z,0.85
2022-08-24T13:34:10.838Z,0.70
2022-08-24T13:36:43.026Z,1.63
2022-08-24T13:39:35.113Z,1.17
2022-08-24T13:42:10.066Z,1.52
2022-08-24T13:44:57.906Z,0.82
2022-08-24T13:47:31.580Z,1.23
2022-08-24T13:50:52.024Z,0.50
2022-08-24T13:53:36.412Z,0.35
2022-08-24T13:56:44.792Z,0.63
2022-08-24T13:59:37.195Z,0.50
2022-08-24T14:02:17.074Z,1.23
2022-08-24T14:05:09.495Z,0.55
2022-08-24T14:07:48.879Z,0.73
2022-08-24T14:10:54.205Z,0.52
2022-08-24T14:13:45.127Z,0.52
2022-08-24T14:17:06.791Z,0.68
2022-08-24T14:20:05.071Z,1.10
2022-08-24T14:22:52.521Z,0.30
2022-08-24T14:25:33.159Z,0.50
2022-08-24T14:28:00.769Z,1.02
2022-08-24T14:30:28.343Z,0.50
2022-08-24T14:33:01.838Z,0.95
2022-08-24T14:35:38.369Z,0.82
2022-08-24T14:38:16.827Z,1.38
2022-08-24T14:40:53.348Z,0.70
2022-08-24T14:43:41.753Z,0.70
2022-08-24T14:47:04.770Z,0.75
2022-08-24T14:49:44.570Z,0.63
2022-08-24T14:52:38.238Z,2.45
2022-08-24T14:55:20.711Z,0.60
2022-08-24T14:58:10.150Z,0.70
2022-08-24T15:01:20.081Z,0.63
2022-08-24T15:03:50.429Z,0.65
2022-08-24T15:06:28.772Z,0.40
2022-08-24T15:09:09.199Z,1.13
2022-08-24T15:11:40.859Z,1.85
2022-08-24T15:14:37.378Z,0.60
2022-08-24T15:17:17.296Z,0.70
2022-08-24T15:20:02.459Z,0.80
2022-08-24T15:22:44.692Z,0.70
2022-08-24T15:25:24.312Z,0.80
2022-08-24T15:28:06.075Z,0.70
2022-08-24T15:30:37.295Z,0.98
2022-08-24T15:33:19.766Z,1.85
2022-08-24T15:36:04.401Z,0.88
2022-08-24T15:38:35.511Z,0.95
2022-08-24T15:41:07.920Z,0.80
2022-08-24T15:43:40.301Z,0.65
2022-08-24T15:46:08.894Z,0.90
2022-08-24T15:48:37.335Z,0.90
2022-08-24T15:51:06.010Z,1.33
2022-08-24T15:53:40.474Z,1.08
2022-08-24T15:56:35.730Z,1.38
2022-08-24T15:59:23.408Z,1.05
2022-08-24T16:02:29.930Z,0.82
2022-08-24T16:05:15.921Z,1.02
2022-08-24T16:10:30.985Z,0.77
2022-08-24T16:13:09.055Z,1.20
2022-08-24T16:15:53.819Z,0.90
2022-08-24T16:18:21.890Z,2.00
2022-08-24T16:20:51.088Z,1.00
2022-08-24T16:23:27.492Z,1.05
2022-08-24T16:26:19.522Z,1.00
2022-08-24T16:28:47.766Z,1.13
2022-08-24T16:31:41.037Z,1.10
2022-08-24T16:34:20.665Z,1.20
2022-08-24T16:36:48.840Z,1.45
2022-08-24T16:39:16.456Z,1.13
2022-08-24T16:41:44.371Z,1.00
2022-08-24T16:44:12.493Z,1.40
2022-08-24T16:46:40.419Z,1.30
2022-08-24T16:49:12.573Z,1.67
2022-08-24T16:51:41.117Z,3.05
2022-08-24T16:54:13.670Z,2.05
2022-08-24T16:56:42.715Z,1.88
2022-08-24T16:59:18.623Z,1.50
2022-08-24T17:04:18.237Z,1.50
2022-08-24T17:06:48.360Z,1.50
2022-08-24T17:09:19.286Z,1.85
2022-08-24T17:11:47.172Z,3.15
2022-08-24T17:14:15.478Z,1.40
2022-08-24T17:16:43.662Z,1.48
2022-08-24T17:19:18.129Z,1.05
2022-08-24T17:21:45.726Z,1.40
2022-08-24T17:24:13.572Z,1.55
2022-08-24T17:26:48.394Z,2.13
2022-08-24T17:29:18.608Z,1.98
2022-08-24T17:31:50.061Z,1.88
2022-08-24T17:34:21.297Z,1.63
2022-08-24T17:36:51.372Z,1.85
2022-08-24T17:39:19.910Z,1.48
2022-08-24T17:41:47.706Z,1.48
2022-08-24T17:44:21.132Z,2.20
2022-08-24T17:46:50.643Z,1.75
2022-08-24T17:49:18.441Z,2.72
2022-08-24T17:51:46.674Z,1.65
2022-08-24T17:54:14.319Z,1.38
2022-08-24T17:56:42.128Z,1.70
2022-08-24T17:59:24.812Z,1.48
2022-08-24T18:01:58.746Z,2.80
2022-08-24T18:04:29.876Z,1.27
2022-08-24T18:07:01.213Z,1.20
2022-08-24T18:09:56.695Z,1.30
2022-08-24T18:12:25.501Z,2.33
2022-08-24T18:14:53.652Z,2.80
2022-08-24T18:17:36.032Z,1.00
2022-08-24T18:20:05.084Z,1.45
2022-08-24T18:22:32.589Z,2.80
2022-08-24T18:25:00.178Z,1.05
2022-08-24T18:27:33.590Z,3.58
2022-08-24T18:30:05.158Z,0.85
2022-08-24T18:32:37.585Z,1.70
2022-08-24T18:35:07.997Z,2.78
2022-08-24T18:37:35.560Z,0.90
2022-08-24T18:40:04.322Z,3.28
2022-08-24T18:42:33.530Z,2.38
2022-08-24T18:45:02.777Z,1.00
2022-08-24T18:47:30.376Z,3.17
2022-08-24T18:49:57.961Z,1.00
2022-08-24T18:52:26.263Z,1.13
2022-08-24T18:54:54.330Z,1.98
2022-08-24T18:57:21.899Z,0.90
2022-08-24T18:59:49.418Z,3.45
2022-08-24T19:02:33.372Z,1.00
2022-08-24T19:05:11.873Z,1.52
2022-08-24T19:07:42.487Z,2.20
2022-08-24T19:10:12.357Z,3.50
2022-08-24T19:12:46.881Z,1.20
2022-08-24T19:15:38.996Z,1.17
2022-08-24T19:18:05.467Z,1.45
2022-08-24T19:20:35.218Z,1.45
2022-08-24T19:23:09.342Z,1.95
2022-08-24T19:25:38.613Z,1.17
2022-08-24T19:28:06.690Z,0.98
2022-08-24T19:30:34.826Z,0.70
2022-08-24T19:33:03.427Z,1.85
2022-08-24T19:35:34.764Z,1.17
2022-08-24T19:38:03.184Z,2.90
2022-08-24T19:40:30.915Z,2.25
2022-08-24T19:42:59.078Z,1.98
2022-08-24T19:45:45.530Z,2.47
2022-08-24T19:48:13.664Z,2.30
2022-08-24T19:50:41.406Z,2.03
2022-08-24T19:53:10.415Z,1.67
2022-08-24T19:55:38.494Z,2.90
2022-08-24T19:58:18.540Z,1.58
2022-08-24T20:00:51.078Z,3.50
2022-08-24T20:03:19.440Z,1.02
2022-08-24T20:05:47.014Z,2.55
2022-08-24T20:08:14.944Z,1.77
2022-08-24T20:10:42.645Z,1.40
2022-08-24T20:13:10.251Z,3.08
2022-08-24T20:15:38.237Z,0.60
2022-08-24T20:18:06.453Z,1.13
2022-08-24T20:20:34.350Z,0.80
2022-08-24T20:23:06.081Z,1.13
2022-08-24T20:25:36.172Z,0.68
2022-08-24T20:28:28.623Z,0.73
2022-08-24T20:30:53.426Z,4.45
2022-08-24T20:33:21.320Z,1.02
2022-08-24T20:35:49.665Z,0.93
2022-08-24T20:38:20.050Z,2.05
2022-08-24T20:40:48.862Z,3.38
2022-08-24T20:43:16.981Z,2.42
2022-08-24T20:45:45.421Z,1.83
2022-08-24T20:48:14.444Z,1.73
2022-08-24T20:50:43.561Z,2.47
2022-08-24T20:53:12.076Z,2.15
2022-08-24T20:55:41.610Z,0.70
2022-08-24T20:58:09.868Z,1.52
2022-08-24T21:00:37.982Z,5.57
2022-08-24T21:03:05.682Z,3.65
2022-08-24T21:05:33.395Z,2.85
2022-08-24T21:08:00.962Z,4.93
2022-08-24T21:10:28.655Z,1.33
2022-08-24T21:12:56.205Z,1.50
2022-08-24T21:15:23.932Z,2.35
2022-08-24T21:17:51.604Z,3.55
2022-08-24T21:20:20.462Z,2.22
2022-08-24T21:22:48.584Z,3.10
2022-08-24T21:25:17.583Z,2.55
2022-08-24T21:27:48.021Z,1.77
2022-08-24T21:30:21.341Z,2.80
2022-08-24T21:33:07.927Z,2.03
2022-08-24T21:38:05.561Z,0.98
2022-08-24T21:40:36.241Z,1.73
2022-08-24T21:43:14.857Z,1.73
2022-08-24T21:45:46.629Z,2.40
2022-08-24T21:48:14.645Z,1.08
2022-08-24T21:50:42.641Z,2.25
2022-08-24T21:53:10.372Z,1.52
2022-08-24T21:55:39.121Z,3.63
2022-08-24T21:58:06.804Z,5.13
2022-08-24T22:00:35.675Z,2.35
2022-08-24T22:03:04.597Z,1.75
2022-08-24T22:05:32.552Z,3.22
2022-08-24T22:08:00.113Z,1.08
2022-08-24T22:10:27.755Z,2.33
2022-08-24T22:12:55.330Z,1.23
2022-08-24T22:15:23.243Z,1.83
2022-08-24T22:17:52.783Z,1.45
2022-08-24T22:20:23.035Z,3.03
2022-08-24T22:22:51.575Z,1.58
2022-08-24T22:25:19.136Z,2.17
2022-08-24T22:27:47.358Z,1.85
2022-08-24T22:30:17.868Z,2.15
2022-08-24T22:32:46.370Z,1.15
2022-08-24T22:35:14.386Z,1.80
2022-08-24T22:37:42.472Z,3.95
2022-08-24T22:40:12.703Z,2.83
2022-08-24T22:42:41.117Z,1.85
2022-08-24T22:45:10.007Z,1.33
2022-08-24T22:47:38.235Z,1.90
2022-08-24T22:50:07.176Z,2.83
2022-08-24T22:52:34.784Z,1.50
2022-08-24T22:55:03.169Z,3.75
2022-08-24T22:57:30.813Z,2.10
2022-08-24T22:59:58.369Z,2.33
2022-08-24T23:02:26.097Z,0.95
2022-08-24T23:04:53.821Z,1.73
2022-08-24T23:07:21.834Z,2.17
2022-08-24T23:09:50.129Z,0.63
2022-08-24T23:12:22.452Z,3.97
2022-08-24T23:14:51.695Z,1.20
2022-08-24T23:17:20.435Z,1.98
2022-08-24T23:20:01.328Z,1.92
2022-08-24T23:22:35.598Z,1.23
2022-08-24T23:25:04.295Z,2.72
2022-08-24T23:27:37.178Z,1.00
2022-08-24T23:30:15.064Z,3.90
2022-08-24T23:32:43.776Z,4.30
2022-08-24T23:35:11.358Z,2.22
2022-08-24T23:37:39.150Z,1.45
2022-08-24T23:40:07.459Z,1.77
2022-08-24T23:42:35.110Z,2.28
2022-08-24T23:45:02.756Z,2.10
2022-08-24T23:47:30.332Z,2.13
2022-08-24T23:50:06.770Z,1.52
2022-08-24T23:52:39.802Z,1.38
2022-08-24T23:55:21.502Z,1.73
2022-08-24T23:57:51.291Z,2.22
